createdAt,value
2018-01-18T00:00:02.713Z,1.92
2018-01-18T00:02:30.270Z,3.05
2018-01-18T00:04:57.861Z,2.85
2018-01-18T00:07:25.383Z,2.40
2018-01-18T00:09:53.880Z,2.50
2018-01-18T00:12:21.433Z,2.12
2018-01-18T00:14:48.978Z,2.83
2018-01-18T00:17:17.285Z,2.12
2018-01-18T00:19:44.829Z,2.50
2018-01-18T00:22:12.353Z,2.90
2018-01-18T00:24:40.660Z,3.20
2018-01-18T00:27:08.950Z,3.00
2018-01-18T00:29:37.262Z,3.20
2018-01-18T00:32:05.556Z,2.90
2018-01-18T00:34:33.858Z,3.10
2018-01-18T00:37:02.135Z,2.65
2018-01-18T00:39:29.719Z,2.60
2018-01-18T00:41:58.078Z,2.70
2018-01-18T00:44:25.835Z,3.37
2018-01-18T00:46:54.237Z,2.92
2018-01-18T00:49:22.527Z,2.78
2018-01-18T00:51:50.068Z,3.20
2018-01-18T00:54:17.637Z,3.10
2018-01-18T00:56:45.211Z,2.55
2018-01-18T00:59:12.816Z,3.20
2018-01-18T01:01:40.348Z,3.00
2018-01-18T01:04:07.933Z,2.92
2018-01-18T01:06:35.474Z,3.25
2018-01-18T01:09:03.792Z,2.47
2018-01-18T01:11:31.323Z,2.87
2018-01-18T01:13:58.852Z,2.60
2018-01-18T01:16:27.178Z,2.35
2018-01-18T01:18:55.458Z,2.33
2018-01-18T01:21:23.020Z,2.97
2018-01-18T01:23:51.311Z,2.28
2018-01-18T01:26:19.624Z,2.60
2018-01-18T01:28:47.913Z,2.00
2018-01-18T01:31:15.476Z,2.20
2018-01-18T01:33:43.786Z,2.10
2018-01-18T01:36:11.324Z,1.90
2018-01-18T01:38:38.873Z,2.25
2018-01-18T01:41:06.396Z,2.47
2018-01-18T01:43:33.951Z,2.42
2018-01-18T01:46:01.474Z,2.53
2018-01-18T01:48:38.874Z,2.12
2018-01-18T01:51:07.177Z,2.00
2018-01-18T01:53:34.775Z,2.35
2018-01-18T01:56:03.089Z,1.83
2018-01-18T01:58:30.621Z,1.77
2018-01-18T02:00:58.153Z,2.17
2018-01-18T02:03:26.508Z,2.47
2018-01-18T02:05:54.094Z,2.37
2018-01-18T02:08:21.649Z,2.03
2018-01-18T02:10:49.965Z,2.00
2018-01-18T02:13:17.495Z,1.55
2018-01-18T02:15:45.053Z,2.00
2018-01-18T02:18:12.621Z,2.42
2018-01-18T02:20:40.206Z,2.10
2018-01-18T02:23:07.729Z,2.10
2018-01-18T02:25:35.382Z,2.28
2018-01-18T02:28:02.967Z,1.90
2018-01-18T02:30:30.513Z,2.75
2018-01-18T02:32:58.124Z,2.12
2018-01-18T02:35:25.673Z,1.80
2018-01-18T02:37:53.354Z,1.92
2018-01-18T02:40:20.916Z,2.12
2018-01-18T02:42:49.449Z,1.80
2018-01-18T02:45:17.117Z,2.10
2018-01-18T02:47:44.643Z,1.75
2018-01-18T02:50:12.248Z,2.15
2018-01-18T02:52:39.789Z,2.72
2018-01-18T02:55:07.393Z,2.17
2018-01-18T02:57:34.997Z,1.92
2018-01-18T03:00:02.632Z,1.85
2018-01-18T03:02:30.270Z,1.80
2018-01-18T03:04:57.894Z,1.95
2018-01-18T03:07:25.439Z,2.00
2018-01-18T03:09:53.077Z,1.85
2018-01-18T03:12:20.606Z,1.50
2018-01-18T03:14:48.215Z,1.92
2018-01-18T03:17:16.596Z,1.95
2018-01-18T03:19:44.152Z,1.90
2018-01-18T03:22:11.793Z,1.70
2018-01-18T03:24:39.330Z,1.80
2018-01-18T03:27:06.940Z,1.60
2018-01-18T03:29:36.666Z,1.98
2018-01-18T03:32:05.023Z,1.58
2018-01-18T03:34:32.546Z,1.87
2018-01-18T03:37:00.906Z,2.00
2018-01-18T03:39:35.116Z,1.50
2018-01-18T03:42:03.527Z,1.85
2018-01-18T03:44:31.060Z,1.87
2018-01-18T03:46:58.606Z,1.40
2018-01-18T03:49:26.205Z,1.50
2018-01-18T03:51:53.725Z,1.80
2018-01-18T03:54:22.069Z,1.30
2018-01-18T03:56:49.606Z,1.83
2018-01-18T03:59:17.252Z,2.03
2018-01-18T04:01:45.560Z,1.95
2018-01-18T04:04:13.209Z,1.85
2018-01-18T04:06:40.769Z,1.75
2018-01-18T04:09:09.073Z,1.85
2018-01-18T04:11:37.436Z,1.50
2018-01-18T04:14:05.765Z,2.08
2018-01-18T04:16:34.134Z,1.90
2018-01-18T04:19:01.680Z,1.70
2018-01-18T04:21:29.329Z,1.90
2018-01-18T04:23:57.683Z,1.67
2018-01-18T04:26:25.286Z,1.70
2018-01-18T04:28:52.814Z,1.50
2018-01-18T04:31:21.162Z,1.20
2018-01-18T04:33:48.696Z,1.70
2018-01-18T04:36:16.272Z,1.50
2018-01-18T04:38:43.941Z,1.73
2018-01-18T04:41:11.459Z,1.90
2018-01-18T04:43:39.079Z,1.67
2018-01-18T04:46:06.619Z,1.90
2018-01-18T04:48:34.231Z,1.40
2018-01-18T04:51:01.753Z,1.48
2018-01-18T04:53:29.271Z,1.60
2018-01-18T04:55:56.981Z,2.05
2018-01-18T04:58:25.266Z,2.65
2018-01-18T05:00:53.144Z,1.75
2018-01-18T05:03:20.688Z,1.53
2018-01-18T05:05:48.236Z,1.90
2018-01-18T05:08:15.845Z,1.23
2018-01-18T05:10:43.372Z,1.45
2018-01-18T05:13:10.961Z,1.55
2018-01-18T05:15:38.493Z,1.70
2018-01-18T05:18:06.845Z,2.87
2018-01-18T05:20:34.370Z,1.52
2018-01-18T05:23:02.805Z,2.10
2018-01-18T05:25:30.326Z,1.53
2018-01-18T05:27:57.849Z,2.10
2018-01-18T05:30:26.195Z,1.30
2018-01-18T05:32:53.757Z,1.83
2018-01-18T05:35:21.350Z,2.47
2018-01-18T05:37:48.888Z,1.73
2018-01-18T05:40:16.498Z,2.20
2018-01-18T05:42:44.048Z,1.65
2018-01-18T05:45:11.765Z,2.10
2018-01-18T05:47:40.050Z,1.67
2018-01-18T05:50:07.722Z,1.97
2018-01-18T05:52:35.333Z,2.17
2018-01-18T05:55:02.872Z,2.10
2018-01-18T05:57:30.394Z,2.00
2018-01-18T05:59:57.980Z,1.90
2018-01-18T06:02:26.284Z,2.30
2018-01-18T06:04:54.677Z,1.67
2018-01-18T06:07:22.211Z,2.30
2018-01-18T06:09:49.818Z,2.27
2018-01-18T06:12:17.408Z,1.53
2018-01-18T06:14:45.776Z,1.77
2018-01-18T06:17:13.311Z,1.90
2018-01-18T06:19:40.915Z,2.10
2018-01-18T06:22:09.226Z,1.40
2018-01-18T06:24:37.594Z,1.30
2018-01-18T06:27:05.145Z,2.27
2018-01-18T06:29:32.772Z,1.55
2018-01-18T06:32:00.440Z,1.70
2018-01-18T06:34:27.984Z,4.50
2018-01-18T06:36:55.596Z,1.40
2018-01-18T06:39:24.085Z,1.60
2018-01-18T06:41:51.677Z,4.70
2018-01-18T06:44:19.215Z,2.13
2018-01-18T06:46:46.895Z,6.67
2018-01-18T06:49:14.444Z,1.47
2018-01-18T06:51:42.068Z,1.70
2018-01-18T06:54:09.629Z,1.90
2018-01-18T06:56:37.265Z,1.60
2018-01-18T06:59:05.558Z,1.27
2018-01-18T07:01:33.998Z,1.30
2018-01-18T07:04:01.647Z,1.20
2018-01-18T07:06:29.962Z,1.07
2018-01-18T07:08:57.519Z,1.20
2018-01-18T07:11:25.142Z,1.50
2018-01-18T07:13:52.823Z,1.27
2018-01-18T07:16:20.419Z,1.27
2018-01-18T07:18:48.085Z,1.20
2018-01-18T07:21:15.621Z,1.40
2018-01-18T07:23:43.240Z,1.43
2018-01-18T07:26:10.758Z,0.80
2018-01-18T07:28:38.414Z,0.97
2018-01-18T07:31:05.949Z,1.63
2018-01-18T07:33:33.493Z,1.10
2018-01-18T07:36:02.025Z,1.20
2018-01-18T07:38:29.626Z,1.10
2018-01-18T07:40:57.168Z,1.57
2018-01-18T07:43:25.530Z,1.50
2018-01-18T07:45:53.227Z,1.37
2018-01-18T07:48:20.902Z,1.23
2018-01-18T07:50:48.513Z,1.07
2018-01-18T07:53:16.030Z,1.27
2018-01-18T07:55:43.622Z,1.07
2018-01-18T07:58:11.296Z,0.90
2018-01-18T08:00:39.582Z,0.80
2018-01-18T08:03:13.597Z,0.70
2018-01-18T08:05:41.184Z,1.20
2018-01-18T08:08:08.805Z,0.93
2018-01-18T08:10:37.087Z,0.97
2018-01-18T08:13:05.384Z,1.00
2018-01-18T08:15:33.001Z,1.00
2018-01-18T08:18:00.536Z,1.10
2018-01-18T08:20:28.138Z,1.00
2018-01-18T08:22:55.753Z,1.00
2018-01-18T08:25:23.353Z,0.80
2018-01-18T08:27:51.086Z,1.03
2018-01-18T08:30:18.714Z,0.80
2018-01-18T08:32:46.281Z,1.27
2018-01-18T08:35:14.753Z,1.10
2018-01-18T08:37:42.316Z,0.90
2018-01-18T08:40:09.835Z,1.03
2018-01-18T08:42:37.456Z,0.93
2018-01-18T08:45:05.558Z,0.80
2018-01-18T08:47:33.094Z,0.77
2018-01-18T08:50:00.706Z,0.73
2018-01-18T08:52:28.372Z,1.00
2018-01-18T08:54:55.945Z,0.90
2018-01-18T08:57:23.674Z,1.10
2018-01-18T08:59:51.252Z,1.00
2018-01-18T09:02:18.906Z,0.67
2018-01-18T09:04:46.440Z,0.70
2018-01-18T09:07:13.985Z,0.80
2018-01-18T09:09:41.660Z,0.80
2018-01-18T09:12:09.334Z,1.00
2018-01-18T09:14:36.956Z,1.17
2018-01-18T09:17:04.473Z,0.80
2018-01-18T09:19:32.021Z,1.00
2018-01-18T09:21:59.645Z,0.90
2018-01-18T09:24:27.254Z,0.70
2018-01-18T09:26:55.739Z,1.10
2018-01-18T09:29:23.296Z,0.90
2018-01-18T09:31:50.933Z,0.80
2018-01-18T09:34:19.277Z,1.33
2018-01-18T09:36:46.871Z,0.80
2018-01-18T09:39:14.494Z,0.80
2018-01-18T09:41:42.103Z,0.80
2018-01-18T09:44:09.647Z,0.87
2018-01-18T09:46:38.001Z,0.70
2018-01-18T09:49:05.604Z,0.97
2018-01-18T09:51:33.185Z,1.20
2018-01-18T09:54:00.799Z,0.83
2018-01-18T09:56:28.376Z,0.60
2018-01-18T09:58:55.910Z,0.90
2018-01-18T10:01:24.275Z,0.83
2018-01-18T10:03:51.922Z,0.90
2018-01-18T10:06:19.498Z,0.67
2018-01-18T10:08:47.150Z,0.60
2018-01-18T10:11:15.489Z,0.60
2018-01-18T10:13:43.114Z,0.83
2018-01-18T10:16:10.650Z,0.97
2018-01-18T10:18:38.267Z,1.00
2018-01-18T10:21:05.802Z,0.80
2018-01-18T10:23:34.163Z,0.70
2018-01-18T10:26:01.697Z,0.83
2018-01-18T10:28:29.992Z,0.77
2018-01-18T10:30:58.412Z,1.17
2018-01-18T10:33:26.007Z,0.67
2018-01-18T10:35:53.644Z,1.00
2018-01-18T10:38:21.982Z,0.90
2018-01-18T10:40:49.687Z,0.70
2018-01-18T10:43:17.266Z,0.90
2018-01-18T10:45:44.877Z,0.73
2018-01-18T10:48:12.416Z,0.60
2018-01-18T10:50:40.806Z,0.97
2018-01-18T10:53:08.316Z,0.70
2018-01-18T10:55:36.155Z,0.70
2018-01-18T10:58:03.731Z,0.70
2018-01-18T11:00:31.291Z,0.70
2018-01-18T11:02:58.905Z,0.70
2018-01-18T11:05:26.482Z,0.70
2018-01-18T11:07:54.015Z,1.20
2018-01-18T11:10:21.616Z,0.70
2018-01-18T11:12:49.469Z,0.80
2018-01-18T11:15:17.119Z,0.70
2018-01-18T11:17:45.402Z,1.03
2018-01-18T11:20:13.014Z,0.87
2018-01-18T11:22:41.333Z,0.73
2018-01-18T11:25:08.938Z,0.70
2018-01-18T11:27:36.636Z,0.80
2018-01-18T11:30:04.383Z,1.03
2018-01-18T11:32:32.754Z,1.10
2018-01-18T11:35:00.404Z,0.80
2018-01-18T11:37:28.700Z,1.17
2018-01-18T11:39:56.241Z,1.60
2018-01-18T11:42:23.842Z,0.60
2018-01-18T11:44:51.363Z,1.87
2018-01-18T11:47:18.975Z,0.80
2018-01-18T11:49:46.500Z,0.93
2018-01-18T11:52:14.149Z,0.90
2018-01-18T11:54:41.708Z,0.60
2018-01-18T11:57:09.388Z,1.00
2018-01-18T11:59:37.711Z,0.70
2018-01-18T12:02:05.308Z,0.90
2018-01-18T12:04:32.984Z,1.37
2018-01-18T12:07:00.521Z,0.50
2018-01-18T12:09:28.101Z,0.93
2018-01-18T12:11:55.765Z,1.37
2018-01-18T12:14:23.335Z,0.80
2018-01-18T12:16:51.680Z,0.90
2018-01-18T12:19:19.288Z,0.73
2018-01-18T12:21:47.659Z,0.73
2018-01-18T12:24:15.189Z,0.80
2018-01-18T12:26:42.725Z,1.10
2018-01-18T12:29:10.315Z,1.00
2018-01-18T12:31:37.867Z,1.23
2018-01-18T12:34:05.504Z,0.87
2018-01-18T12:36:34.035Z,1.20
2018-01-18T12:39:01.549Z,1.30
2018-01-18T12:41:29.206Z,0.87
2018-01-18T12:43:56.758Z,0.90
2018-01-18T12:46:25.162Z,1.13
2018-01-18T12:48:52.745Z,1.67
2018-01-18T12:51:20.342Z,0.70
2018-01-18T12:53:48.625Z,1.30
2018-01-18T12:56:17.166Z,0.77
2018-01-18T12:58:45.475Z,0.87
2018-01-18T13:01:13.879Z,1.20
2018-01-18T13:03:42.190Z,1.03
2018-01-18T13:06:10.536Z,0.90
2018-01-18T13:08:38.346Z,2.33
2018-01-18T13:11:05.872Z,0.73
2018-01-18T13:13:33.497Z,2.03
2018-01-18T13:16:01.056Z,0.83
2018-01-18T13:18:28.606Z,0.70
2018-01-18T13:20:57.044Z,1.23
2018-01-18T13:23:24.682Z,1.27
2018-01-18T13:25:52.225Z,0.60
2018-01-18T13:28:19.822Z,0.60
2018-01-18T13:30:47.360Z,0.80
2018-01-18T13:33:15.723Z,0.93
2018-01-18T13:35:43.269Z,0.80
2018-01-18T13:38:10.884Z,1.20
2018-01-18T13:40:38.394Z,0.60
2018-01-18T13:43:05.915Z,0.70
2018-01-18T13:45:33.512Z,1.00
2018-01-18T13:48:01.065Z,0.70
2018-01-18T13:50:29.422Z,0.90
2018-01-18T13:52:56.975Z,0.73
2018-01-18T13:55:24.565Z,0.93
2018-01-18T13:57:52.083Z,0.70
2018-01-18T14:00:19.811Z,1.00
2018-01-18T14:02:48.127Z,0.63
2018-01-18T14:05:15.746Z,0.73
2018-01-18T14:07:43.361Z,0.60
2018-01-18T14:10:10.911Z,0.73
2018-01-18T14:12:38.594Z,1.73
2018-01-18T14:15:06.204Z,0.60
2018-01-18T14:17:33.832Z,1.20
2018-01-18T14:20:01.375Z,0.90
2018-01-18T14:22:28.969Z,0.60
2018-01-18T14:24:57.330Z,1.00
2018-01-18T14:27:24.868Z,0.80
2018-01-18T14:29:52.453Z,1.10
2018-01-18T14:32:20.043Z,0.73
2018-01-18T14:34:47.682Z,0.80
2018-01-18T14:37:15.235Z,0.70
2018-01-18T14:39:42.769Z,0.90
2018-01-18T14:42:11.164Z,0.63
2018-01-18T14:44:38.831Z,1.67
2018-01-18T14:47:06.428Z,0.87
2018-01-18T14:49:34.045Z,0.90
2018-01-18T14:52:01.728Z,1.17
2018-01-18T14:54:30.154Z,0.70
2018-01-18T14:56:57.755Z,1.10
2018-01-18T14:59:25.368Z,1.00
2018-01-18T15:01:52.965Z,0.60
2018-01-18T15:04:20.511Z,1.30
2018-01-18T15:06:48.095Z,0.87
2018-01-18T15:09:15.605Z,0.80
2018-01-18T15:11:43.193Z,1.00
2018-01-18T15:14:10.857Z,1.10
2018-01-18T15:16:38.510Z,1.93
2018-01-18T15:19:06.208Z,0.50
2018-01-18T15:21:35.514Z,1.13
2018-01-18T15:24:03.034Z,0.73
2018-01-18T15:26:30.656Z,0.57
2018-01-18T15:28:58.200Z,0.63
2018-01-18T15:31:25.853Z,1.00
2018-01-18T15:33:54.153Z,1.53
2018-01-18T15:36:22.488Z,0.90
2018-01-18T15:38:50.095Z,0.87
2018-01-18T15:41:17.771Z,0.93
2018-01-18T15:43:45.567Z,1.10
2018-01-18T15:46:13.225Z,1.27
2018-01-18T15:48:40.791Z,1.40
2018-01-18T15:51:08.302Z,1.03
2018-01-18T15:53:36.615Z,0.70
2018-01-18T15:56:04.342Z,0.70
2018-01-18T15:58:31.868Z,1.00
2018-01-18T16:01:00.211Z,1.00
2018-01-18T16:03:28.595Z,1.00
2018-01-18T16:05:56.421Z,0.70
2018-01-18T16:08:24.049Z,0.80
2018-01-18T16:10:52.388Z,0.80
2018-01-18T16:13:20.852Z,0.87
2018-01-18T16:15:48.426Z,1.10
2018-01-18T16:18:16.145Z,1.20
2018-01-18T16:20:43.847Z,1.50
2018-01-18T16:23:12.136Z,1.00
2018-01-18T16:25:39.701Z,0.50
2018-01-18T16:28:07.284Z,1.40
2018-01-18T16:30:34.807Z,0.60
2018-01-18T16:33:03.143Z,1.00
2018-01-18T16:35:30.672Z,0.90
2018-01-18T16:37:58.208Z,0.80
2018-01-18T16:40:25.901Z,0.90
2018-01-18T16:42:53.470Z,0.80
2018-01-18T16:45:21.103Z,0.67
2018-01-18T16:47:48.710Z,0.70
2018-01-18T16:50:17.014Z,1.63
2018-01-18T16:52:45.389Z,0.70
2018-01-18T16:55:12.929Z,0.90
2018-01-18T16:57:41.274Z,0.93
2018-01-18T17:00:08.813Z,0.70
2018-01-18T17:02:36.352Z,1.20
2018-01-18T17:05:04.001Z,1.07
2018-01-18T17:07:51.743Z,1.27
2018-01-18T17:10:22.591Z,1.00
2018-01-18T17:12:51.668Z,1.33
2018-01-18T17:15:19.233Z,0.90
2018-01-18T17:17:47.571Z,0.87
2018-01-18T17:20:17.829Z,1.37
2018-01-18T17:22:45.374Z,0.60
2018-01-18T17:25:13.663Z,0.70
2018-01-18T17:27:41.973Z,0.93
2018-01-18T17:30:10.395Z,1.00
2018-01-18T17:32:37.943Z,1.10
2018-01-18T17:35:05.508Z,0.77
2018-01-18T17:37:33.034Z,0.60
2018-01-18T17:40:00.622Z,0.53
2018-01-18T17:42:28.161Z,0.87
2018-01-18T17:44:55.755Z,1.00
2018-01-18T17:47:24.097Z,1.40
2018-01-18T17:49:52.382Z,0.87
2018-01-18T17:52:19.985Z,1.10
2018-01-18T17:54:47.548Z,1.07
2018-01-18T17:57:16.009Z,1.70
2018-01-18T17:59:43.538Z,1.63
2018-01-18T18:02:11.894Z,1.50
2018-01-18T18:04:39.494Z,0.87
2018-01-18T18:07:07.150Z,1.13
2018-01-18T18:09:34.732Z,1.20
2018-01-18T18:12:02.357Z,1.40
2018-01-18T18:14:29.922Z,1.10
2018-01-18T18:16:57.463Z,1.10
2018-01-18T18:19:25.181Z,1.23
2018-01-18T18:21:52.748Z,1.20
2018-01-18T18:24:20.272Z,1.60
2018-01-18T18:26:47.822Z,0.90
2018-01-18T18:29:15.430Z,0.90
2018-01-18T18:31:42.962Z,0.90
2018-01-18T18:34:11.238Z,1.40
2018-01-18T18:36:38.892Z,1.10
2018-01-18T18:39:06.462Z,1.10
2018-01-18T18:41:33.998Z,1.37
2018-01-18T18:44:02.352Z,1.30
2018-01-18T18:46:29.887Z,1.50
2018-01-18T18:48:57.431Z,1.40
2018-01-18T18:51:25.009Z,0.97
2018-01-18T18:53:52.668Z,0.97
2018-01-18T18:56:20.985Z,1.77
2018-01-18T18:58:50.256Z,1.40
2018-01-18T19:01:17.900Z,1.33
2018-01-18T19:03:45.508Z,1.63
2018-01-18T19:06:13.075Z,1.73
2018-01-18T19:08:40.594Z,2.07
2018-01-18T19:11:08.114Z,1.63
2018-01-18T19:13:36.432Z,1.93
2018-01-18T19:16:04.135Z,1.83
2018-01-18T19:18:31.680Z,2.07
2018-01-18T19:21:00.025Z,1.47
2018-01-18T19:23:27.558Z,1.77
2018-01-18T19:25:55.930Z,1.93
2018-01-18T19:28:23.509Z,1.43
2018-01-18T19:30:51.048Z,2.63
2018-01-18T19:33:19.230Z,1.40
2018-01-18T19:35:47.539Z,1.53
2018-01-18T19:38:15.872Z,1.93
2018-01-18T19:40:43.624Z,1.20
2018-01-18T19:43:11.186Z,1.40
2018-01-18T19:45:38.759Z,1.73
2018-01-18T19:48:06.354Z,1.77
2018-01-18T19:50:33.985Z,1.90
2018-01-18T19:53:01.552Z,1.50
2018-01-18T19:55:29.861Z,1.57
2018-01-18T19:57:58.176Z,1.43
2018-01-18T20:00:25.701Z,1.27
2018-01-18T20:02:53.214Z,1.10
2018-01-18T20:05:20.822Z,0.93
2018-01-18T20:07:48.362Z,1.23
2018-01-18T20:10:15.918Z,1.80
2018-01-18T20:12:43.544Z,1.43
2018-01-18T20:15:11.095Z,2.03
2018-01-18T20:17:38.606Z,1.73
2018-01-18T20:20:06.173Z,1.77
2018-01-18T20:22:33.714Z,3.90
2018-01-18T20:25:01.245Z,1.50
2018-01-18T20:27:28.799Z,1.10
2018-01-18T20:29:57.204Z,1.20
2018-01-18T20:32:24.782Z,1.60
2018-01-18T20:34:52.489Z,1.60
2018-01-18T20:37:20.071Z,1.57
2018-01-18T20:39:49.141Z,2.67
2018-01-18T20:42:18.213Z,1.67
2018-01-18T20:44:46.337Z,1.87
2018-01-18T20:47:14.408Z,1.83
2018-01-18T20:49:42.377Z,1.50
2018-01-18T20:52:09.918Z,1.30
2018-01-18T20:54:38.265Z,1.97
2018-01-18T20:57:05.848Z,1.20
2018-01-18T20:59:33.387Z,1.57
2018-01-18T21:02:00.912Z,1.30
2018-01-18T21:04:28.444Z,1.20
2018-01-18T21:06:56.073Z,1.50
2018-01-18T21:09:24.404Z,1.23
2018-01-18T21:11:52.013Z,1.53
2018-01-18T21:14:19.547Z,1.53
2018-01-18T21:16:47.105Z,1.50
2018-01-18T21:19:15.412Z,1.30
2018-01-18T21:21:42.992Z,1.27
2018-01-18T21:24:10.656Z,1.40
2018-01-18T21:26:38.185Z,1.70
2018-01-18T21:29:05.771Z,1.60
2018-01-18T21:31:33.282Z,1.40
2018-01-18T21:34:00.863Z,1.10
2018-01-18T21:36:28.424Z,1.20
2018-01-18T21:38:55.945Z,0.90
2018-01-18T21:41:23.505Z,1.10
2018-01-18T21:43:51.048Z,0.80
2018-01-18T21:46:19.333Z,1.33
2018-01-18T21:48:46.936Z,0.97
2018-01-18T21:51:15.250Z,0.90
2018-01-18T21:53:42.841Z,0.87
2018-01-18T21:56:10.438Z,0.90
2018-01-18T21:58:38.772Z,1.13
2018-01-18T22:01:06.322Z,1.00
2018-01-18T22:03:33.878Z,1.13
2018-01-18T22:06:02.256Z,1.13
2018-01-18T22:08:29.781Z,1.23
2018-01-18T22:10:58.063Z,1.20
2018-01-18T22:13:25.657Z,1.50
2018-01-18T22:15:53.958Z,1.73
2018-01-18T22:18:22.245Z,1.80
2018-01-18T22:20:49.792Z,1.40
2018-01-18T22:23:17.334Z,1.30
2018-01-18T22:25:45.628Z,1.30
2018-01-18T22:28:13.925Z,1.30
2018-01-18T22:30:42.334Z,1.10
2018-01-18T22:33:10.621Z,1.67
2018-01-18T22:35:38.130Z,1.10
2018-01-18T22:38:06.459Z,1.43
2018-01-18T22:40:33.997Z,1.27
2018-01-18T22:43:02.278Z,1.40
2018-01-18T22:45:29.840Z,1.20
2018-01-18T22:47:57.429Z,1.47
2018-01-18T22:50:25.011Z,0.90
2018-01-18T22:52:52.546Z,1.40
2018-01-18T22:55:20.826Z,1.10
2018-01-18T22:57:48.370Z,1.20
2018-01-18T23:00:19.905Z,1.10
2018-01-18T23:02:47.444Z,1.33
2018-01-18T23:05:14.979Z,1.30
2018-01-18T23:07:42.540Z,1.47
2018-01-18T23:10:10.064Z,1.27
2018-01-18T23:12:37.645Z,1.60
2018-01-18T23:15:05.198Z,1.10
2018-01-18T23:17:33.682Z,1.43
2018-01-18T23:20:02.284Z,1.63
2018-01-18T23:22:29.831Z,1.60
2018-01-18T23:24:57.521Z,1.77
2018-01-18T23:27:25.096Z,1.70
2018-01-18T23:29:52.678Z,2.00
2018-01-18T23:32:20.292Z,2.10
2018-01-18T23:34:47.847Z,4.17
2018-01-18T23:37:15.373Z,2.13
2018-01-18T23:39:42.921Z,1.70
2018-01-18T23:42:11.195Z,2.80
2018-01-18T23:44:38.757Z,1.80
2018-01-18T23:47:06.306Z,1.90
2018-01-18T23:49:34.629Z,1.90
2018-01-18T23:52:02.172Z,2.30
2018-01-18T23:54:29.741Z,1.87
2018-01-18T23:56:57.286Z,1.77
2018-01-18T23:59:24.982Z,1.50
